sensor_id;sensor_type;location;lat;lon;timestamp;pressure;altitude;pressure_sealevel;temperature;humidity
75172;BME280;63750;52.418;20.742;2022-12-26T00:00:19;100946.02;;;7.01;74.62
75172;BME280;63750;52.418;20.742;2022-12-26T00:02:49;100947.55;;;6.99;74.51
75172;BME280;63750;52.418;20.742;2022-12-26T00:05:19;100953.86;;;6.99;74.54
75172;BME280;63750;52.418;20.742;2022-12-26T00:07:52;100952.44;;;7.05;74.52
75172;BME280;63750;52.418;20.742;2022-12-26T00:10:23;100952.48;;;7.02;74.48
75172;BME280;63750;52.418;20.742;2022-12-26T00:12:52;100949.97;;;7.02;74.56
75172;BME280;63750;52.418;20.742;2022-12-26T00:15:22;100942.34;;;7.09;74.75
75172;BME280;63750;52.418;20.742;2022-12-26T00:17:51;100937.26;;;7.14;74.56
75172;BME280;63750;52.418;20.742;2022-12-26T00:20:20;100942.16;;;7.19;74.25
75172;BME280;63750;52.418;20.742;2022-12-26T00:22:51;100950.47;;;7.19;73.99
75172;BME280;63750;52.418;20.742;2022-12-26T00:25:22;100947.50;;;7.18;73.91
75172;BME280;63750;52.418;20.742;2022-12-26T00:27:52;100940.70;;;7.17;73.87
75172;BME280;63750;52.418;20.742;2022-12-26T00:30:22;100936.05;;;7.19;73.83
75172;BME280;63750;52.418;20.742;2022-12-26T00:32:51;100934.33;;;7.18;73.74
75172;BME280;63750;52.418;20.742;2022-12-26T00:35:22;100931.39;;;7.17;73.80
75172;BME280;63750;52.418;20.742;2022-12-26T00:37:51;100922.83;;;7.19;73.75
75172;BME280;63750;52.418;20.742;2022-12-26T00:40:21;100922.70;;;7.18;73.67
75172;BME280;63750;52.418;20.742;2022-12-26T00:42:53;100921.13;;;7.18;73.63
75172;BME280;63750;52.418;20.742;2022-12-26T00:45:22;100927.89;;;7.19;73.66
75172;BME280;63750;52.418;20.742;2022-12-26T00:47:54;100931.48;;;7.21;73.57
75172;BME280;63750;52.418;20.742;2022-12-26T00:50:24;100933.73;;;7.19;73.57
75172;BME280;63750;52.418;20.742;2022-12-26T00:52:54;100937.42;;;7.16;73.42
75172;BME280;63750;52.418;20.742;2022-12-26T00:55:23;100933.67;;;7.17;73.39
75172;BME280;63750;52.418;20.742;2022-12-26T00:57:55;100923.09;;;7.17;73.36
75172;BME280;63750;52.418;20.742;2022-12-26T01:00:25;100910.75;;;7.15;73.24
75172;BME280;63750;52.418;20.742;2022-12-26T01:02:54;100901.66;;;7.11;73.35
75172;BME280;63750;52.418;20.742;2022-12-26T01:05:24;100897.48;;;7.08;73.31
75172;BME280;63750;52.418;20.742;2022-12-26T01:07:55;100885.04;;;7.06;73.28
75172;BME280;63750;52.418;20.742;2022-12-26T01:10:25;100883.85;;;7.06;73.29
75172;BME280;63750;52.418;20.742;2022-12-26T01:12:54;100883.11;;;7.01;73.35
75172;BME280;63750;52.418;20.742;2022-12-26T01:15:23;100881.33;;;7.04;73.49
75172;BME280;63750;52.418;20.742;2022-12-26T01:17:52;100888.13;;;7.05;73.50
75172;BME280;63750;52.418;20.742;2022-12-26T01:20:21;100897.10;;;7.08;73.39
75172;BME280;63750;52.418;20.742;2022-12-26T01:22:50;100891.00;;;7.07;73.25
75172;BME280;63750;52.418;20.742;2022-12-26T01:25:19;100879.48;;;7.03;73.32
75172;BME280;63750;52.418;20.742;2022-12-26T01:27:48;100878.02;;;7.03;73.15
75172;BME280;63750;52.418;20.742;2022-12-26T01:30:17;100872.84;;;7.02;73.33
75172;BME280;63750;52.418;20.742;2022-12-26T01:32:45;100866.90;;;7.01;73.46
75172;BME280;63750;52.418;20.742;2022-12-26T01:35:14;100856.59;;;6.97;73.55
75172;BME280;63750;52.418;20.742;2022-12-26T01:37:43;100852.89;;;6.95;73.57
75172;BME280;63750;52.418;20.742;2022-12-26T01:40:13;100848.23;;;6.91;73.61
75172;BME280;63750;52.418;20.742;2022-12-26T01:42:42;100850.21;;;6.95;73.64
75172;BME280;63750;52.418;20.742;2022-12-26T01:45:23;100854.77;;;6.96;73.47
75172;BME280;63750;52.418;20.742;2022-12-26T01:47:54;100859.91;;;6.95;73.55
75172;BME280;63750;52.418;20.742;2022-12-26T01:50:31;100855.66;;;6.96;73.60
75172;BME280;63750;52.418;20.742;2022-12-26T01:53:04;100853.88;;;6.98;73.81
75172;BME280;63750;52.418;20.742;2022-12-26T01:55:38;100847.38;;;7.01;73.76
75172;BME280;63750;52.418;20.742;2022-12-26T01:58:11;100839.68;;;7.05;73.84
75172;BME280;63750;52.418;20.742;2022-12-26T02:00:42;100837.66;;;7.06;73.71
75172;BME280;63750;52.418;20.742;2022-12-26T02:03:11;100839.38;;;7.07;73.72
75172;BME280;63750;52.418;20.742;2022-12-26T02:05:42;100843.09;;;7.07;73.57
75172;BME280;63750;52.418;20.742;2022-12-26T02:08:13;100838.15;;;7.07;73.72
75172;BME280;63750;52.418;20.742;2022-12-26T02:10:47;100835.63;;;7.05;73.79
75172;BME280;63750;52.418;20.742;2022-12-26T02:13:18;100823.48;;;7.05;73.80
75172;BME280;63750;52.418;20.742;2022-12-26T02:15:48;100818.35;;;7.05;73.64
75172;BME280;63750;52.418;20.742;2022-12-26T02:18:16;100816.52;;;7.06;73.64
75172;BME280;63750;52.418;20.742;2022-12-26T02:20:53;100807.30;;;7.04;73.76
75172;BME280;63750;52.418;20.742;2022-12-26T02:35:48;100784.91;;;7.02;74.23
75172;BME280;63750;52.418;20.742;2022-12-26T02:38:28;100781.90;;;7.05;73.97
75172;BME280;63750;52.418;20.742;2022-12-26T02:41:07;100782.92;;;7.08;74.13
75172;BME280;63750;52.418;20.742;2022-12-26T02:43:44;100766.95;;;7.10;73.97
75172;BME280;63750;52.418;20.742;2022-12-26T02:46:20;100761.42;;;7.08;74.00
75172;BME280;63750;52.418;20.742;2022-12-26T02:48:57;100766.98;;;7.01;74.16
75172;BME280;63750;52.418;20.742;2022-12-26T02:51:37;100756.05;;;6.99;74.07
75172;BME280;63750;52.418;20.742;2022-12-26T02:54:17;100741.40;;;6.99;74.12
75172;BME280;63750;52.418;20.742;2022-12-26T02:56:51;100742.17;;;7.01;74.17
75172;BME280;63750;52.418;20.742;2022-12-26T02:59:25;100748.74;;;7.03;74.23
75172;BME280;63750;52.418;20.742;2022-12-26T03:02:00;100747.95;;;7.02;74.39
75172;BME280;63750;52.418;20.742;2022-12-26T03:04:33;100746.25;;;7.03;74.34
75172;BME280;63750;52.418;20.742;2022-12-26T03:07:08;100741.92;;;7.02;74.26
75172;BME280;63750;52.418;20.742;2022-12-26T03:09:41;100734.42;;;7.04;74.40
75172;BME280;63750;52.418;20.742;2022-12-26T03:12:28;100732.33;;;7.03;74.32
75172;BME280;63750;52.418;20.742;2022-12-26T03:15:03;100720.59;;;7.05;74.41
75172;BME280;63750;52.418;20.742;2022-12-26T03:17:36;100711.75;;;7.05;74.27
75172;BME280;63750;52.418;20.742;2022-12-26T03:20:12;100711.88;;;7.03;74.39
75172;BME280;63750;52.418;20.742;2022-12-26T03:22:43;100698.69;;;7.03;74.45
75172;BME280;63750;52.418;20.742;2022-12-26T03:25:19;100690.00;;;7.04;74.46
75172;BME280;63750;52.418;20.742;2022-12-26T03:27:50;100677.30;;;7.04;74.41
75172;BME280;63750;52.418;20.742;2022-12-26T03:30:20;100674.67;;;7.04;74.43
75172;BME280;63750;52.418;20.742;2022-12-26T03:32:49;100656.52;;;7.02;74.30
75172;BME280;63750;52.418;20.742;2022-12-26T03:35:18;100644.86;;;7.00;74.27
75172;BME280;63750;52.418;20.742;2022-12-26T03:37:54;100659.29;;;6.95;74.30
75172;BME280;63750;52.418;20.742;2022-12-26T03:40:38;100656.30;;;6.93;74.35
75172;BME280;63750;52.418;20.742;2022-12-26T03:43:17;100632.41;;;6.89;74.55
75172;BME280;63750;52.418;20.742;2022-12-26T03:45:50;100618.45;;;6.85;74.93
75172;BME280;63750;52.418;20.742;2022-12-26T03:48:30;100611.38;;;6.80;74.81
75172;BME280;63750;52.418;20.742;2022-12-26T03:51:05;100614.39;;;6.82;74.78
75172;BME280;63750;52.418;20.742;2022-12-26T03:53:39;100597.52;;;6.82;74.61
75172;BME280;63750;52.418;20.742;2022-12-26T03:56:14;100589.38;;;6.78;74.86
75172;BME280;63750;52.418;20.742;2022-12-26T03:58:51;100588.34;;;6.75;74.72
75172;BME280;63750;52.418;20.742;2022-12-26T04:01:26;100589.42;;;6.74;74.97
75172;BME280;63750;52.418;20.742;2022-12-26T04:03:56;100593.56;;;6.73;74.98
75172;BME280;63750;52.418;20.742;2022-12-26T04:06:29;100593.17;;;6.73;74.86
75172;BME280;63750;52.418;20.742;2022-12-26T04:09:03;100588.13;;;6.67;74.93
75172;BME280;63750;52.418;20.742;2022-12-26T04:11:35;100577.08;;;6.64;75.10
75172;BME280;63750;52.418;20.742;2022-12-26T04:14:10;100572.56;;;6.64;75.11
75172;BME280;63750;52.418;20.742;2022-12-26T04:16:44;100569.52;;;6.64;75.40
75172;BME280;63750;52.418;20.742;2022-12-26T04:19:19;100557.90;;;6.62;75.48
75172;BME280;63750;52.418;20.742;2022-12-26T04:21:53;100553.41;;;6.60;75.51
75172;BME280;63750;52.418;20.742;2022-12-26T04:24:29;100548.66;;;6.61;75.58
75172;BME280;63750;52.418;20.742;2022-12-26T04:27:03;100542.41;;;6.62;75.50
75172;BME280;63750;52.418;20.742;2022-12-26T04:29:33;100537.42;;;6.58;75.78
75172;BME280;63750;52.418;20.742;2022-12-26T04:32:07;100536.91;;;6.57;75.58
75172;BME280;63750;52.418;20.742;2022-12-26T04:34:44;100526.33;;;6.55;75.79
75172;BME280;63750;52.418;20.742;2022-12-26T04:37:20;100523.30;;;6.53;75.65
75172;BME280;63750;52.418;20.742;2022-12-26T04:39:54;100517.82;;;6.54;75.74
75172;BME280;63750;52.418;20.742;2022-12-26T04:42:25;100515.88;;;6.53;75.87
75172;BME280;63750;52.418;20.742;2022-12-26T04:44:55;100502.01;;;6.53;75.82
75172;BME280;63750;52.418;20.742;2022-12-26T04:47:25;100495.23;;;6.50;75.88
75172;BME280;63750;52.418;20.742;2022-12-26T04:49:54;100490.52;;;6.49;76.07
75172;BME280;63750;52.418;20.742;2022-12-26T04:52:22;100483.30;;;6.46;76.05
75172;BME280;63750;52.418;20.742;2022-12-26T04:54:51;100484.70;;;6.47;76.09
75172;BME280;63750;52.418;20.742;2022-12-26T04:57:20;100479.89;;;6.45;76.25
75172;BME280;63750;52.418;20.742;2022-12-26T04:59:49;100482.92;;;6.44;76.27
75172;BME280;63750;52.418;20.742;2022-12-26T05:02:18;100477.98;;;6.47;76.18
75172;BME280;63750;52.418;20.742;2022-12-26T05:04:46;100473.38;;;6.45;76.20
75172;BME280;63750;52.418;20.742;2022-12-26T05:07:18;100475.63;;;6.46;76.22
75172;BME280;63750;52.418;20.742;2022-12-26T05:09:50;100466.56;;;6.47;76.49
75172;BME280;63750;52.418;20.742;2022-12-26T05:12:20;100459.92;;;6.49;76.35
75172;BME280;63750;52.418;20.742;2022-12-26T05:14:48;100460.64;;;6.48;76.50
75172;BME280;63750;52.418;20.742;2022-12-26T05:17:17;100466.43;;;6.51;76.39
75172;BME280;63750;52.418;20.742;2022-12-26T05:19:46;100461.69;;;6.51;76.33
75172;BME280;63750;52.418;20.742;2022-12-26T05:22:15;100461.74;;;6.50;76.51
75172;BME280;63750;52.418;20.742;2022-12-26T05:24:45;100445.40;;;6.47;76.62
75172;BME280;63750;52.418;20.742;2022-12-26T05:27:16;100444.62;;;6.49;76.54
75172;BME280;63750;52.418;20.742;2022-12-26T05:29:45;100447.66;;;6.48;76.53
75172;BME280;63750;52.418;20.742;2022-12-26T05:32:14;100464.30;;;6.49;76.76
75172;BME280;63750;52.418;20.742;2022-12-26T05:34:43;100482.19;;;6.52;76.71
75172;BME280;63750;52.418;20.742;2022-12-26T05:37:11;100493.10;;;6.54;76.62
75172;BME280;63750;52.418;20.742;2022-12-26T05:39:40;100483.09;;;6.56;76.65
75172;BME280;63750;52.418;20.742;2022-12-26T05:42:08;100462.66;;;6.57;76.62
75172;BME280;63750;52.418;20.742;2022-12-26T05:44:37;100452.68;;;6.59;76.75
75172;BME280;63750;52.418;20.742;2022-12-26T05:47:06;100447.77;;;6.58;76.61
75172;BME280;63750;52.418;20.742;2022-12-26T05:49:35;100443.57;;;6.60;76.73
75172;BME280;63750;52.418;20.742;2022-12-26T05:52:04;100432.75;;;6.59;76.69
75172;BME280;63750;52.418;20.742;2022-12-26T05:54:32;100421.88;;;6.58;76.67
75172;BME280;63750;52.418;20.742;2022-12-26T05:57:01;100423.38;;;6.57;76.76
75172;BME280;63750;52.418;20.742;2022-12-26T05:59:30;100423.21;;;6.57;76.65
75172;BME280;63750;52.418;20.742;2022-12-26T06:01:58;100427.45;;;6.57;76.70
75172;BME280;63750;52.418;20.742;2022-12-26T06:04:27;100431.52;;;6.57;76.76
75172;BME280;63750;52.418;20.742;2022-12-26T06:06:56;100441.48;;;6.55;77.08
75172;BME280;63750;52.418;20.742;2022-12-26T06:09:25;100439.27;;;6.59;76.85
75172;BME280;63750;52.418;20.742;2022-12-26T06:11:53;100423.44;;;6.59;76.89
75172;BME280;63750;52.418;20.742;2022-12-26T06:14:22;100405.73;;;6.58;77.02
75172;BME280;63750;52.418;20.742;2022-12-26T06:16:51;100369.08;;;6.56;77.10
75172;BME280;63750;52.418;20.742;2022-12-26T06:19:20;100367.94;;;6.52;77.11
75172;BME280;63750;52.418;20.742;2022-12-26T06:21:49;100357.05;;;6.54;76.99
75172;BME280;63750;52.418;20.742;2022-12-26T06:24:17;100357.92;;;6.52;77.14
75172;BME280;63750;52.418;20.742;2022-12-26T06:26:46;100348.45;;;6.49;76.96
75172;BME280;63750;52.418;20.742;2022-12-26T06:29:15;100349.54;;;6.49;77.13
75172;BME280;63750;52.418;20.742;2022-12-26T06:31:44;100356.14;;;6.50;77.31
75172;BME280;63750;52.418;20.742;2022-12-26T06:34:12;100356.23;;;6.49;77.14
75172;BME280;63750;52.418;20.742;2022-12-26T06:36:41;100358.29;;;6.48;77.36
75172;BME280;63750;52.418;20.742;2022-12-26T06:39:10;100351.20;;;6.50;77.23
75172;BME280;63750;52.418;20.742;2022-12-26T06:41:39;100354.63;;;6.49;77.36
75172;BME280;63750;52.418;20.742;2022-12-26T06:44:07;100370.66;;;6.52;77.35
75172;BME280;63750;52.418;20.742;2022-12-26T06:46:37;100406.40;;;6.53;77.18
75172;BME280;63750;52.418;20.742;2022-12-26T06:49:06;100415.84;;;6.52;77.30
75172;BME280;63750;52.418;20.742;2022-12-26T06:51:34;100357.90;;;6.50;77.29
75172;BME280;63750;52.418;20.742;2022-12-26T06:54:03;100346.86;;;6.45;77.52
75172;BME280;63750;52.418;20.742;2022-12-26T06:56:33;100332.61;;;6.47;77.21
75172;BME280;63750;52.418;20.742;2022-12-26T06:59:04;100322.67;;;6.46;77.23
75172;BME280;63750;52.418;20.742;2022-12-26T07:01:34;100310.49;;;6.41;77.40
75172;BME280;63750;52.418;20.742;2022-12-26T07:04:03;100318.39;;;6.39;77.40
75172;BME280;63750;52.418;20.742;2022-12-26T07:06:33;100332.64;;;6.39;77.28
75172;BME280;63750;52.418;20.742;2022-12-26T07:09:04;100327.56;;;6.37;77.20
75172;BME280;63750;52.418;20.742;2022-12-26T07:11:45;100328.50;;;6.38;77.34
75172;BME280;63750;52.418;20.742;2022-12-26T07:14:15;100323.41;;;6.38;77.21
75172;BME280;63750;52.418;20.742;2022-12-26T07:16:45;100334.29;;;6.39;77.19
75172;BME280;63750;52.418;20.742;2022-12-26T07:19:14;100328.02;;;6.40;77.52
75172;BME280;63750;52.418;20.742;2022-12-26T07:21:43;100326.31;;;6.37;77.40
75172;BME280;63750;52.418;20.742;2022-12-26T07:24:16;100332.14;;;6.37;77.36
75172;BME280;63750;52.418;20.742;2022-12-26T07:26:46;100347.73;;;6.37;77.22
75172;BME280;63750;52.418;20.742;2022-12-26T07:29:16;100347.98;;;6.34;77.49
75172;BME280;63750;52.418;20.742;2022-12-26T07:31:45;100334.66;;;6.36;77.43
75172;BME280;63750;52.418;20.742;2022-12-26T07:34:14;100337.04;;;6.34;77.46
75172;BME280;63750;52.418;20.742;2022-12-26T07:36:43;100335.30;;;6.34;77.74
75172;BME280;63750;52.418;20.742;2022-12-26T07:39:14;100344.20;;;6.35;77.61
75172;BME280;63750;52.418;20.742;2022-12-26T07:41:43;100343.89;;;6.35;77.60
75172;BME280;63750;52.418;20.742;2022-12-26T07:44:12;100312.15;;;6.33;77.89
75172;BME280;63750;52.418;20.742;2022-12-26T07:46:40;100317.73;;;6.31;78.22
75172;BME280;63750;52.418;20.742;2022-12-26T07:49:09;100313.48;;;6.32;77.85
75172;BME280;63750;52.418;20.742;2022-12-26T07:51:39;100312.70;;;6.35;77.69
75172;BME280;63750;52.418;20.742;2022-12-26T07:54:10;100322.98;;;6.39;77.91
75172;BME280;63750;52.418;20.742;2022-12-26T07:56:40;100324.69;;;6.40;77.76
75172;BME280;63750;52.418;20.742;2022-12-26T07:59:13;100317.40;;;6.43;77.92
75172;BME280;63750;52.418;20.742;2022-12-26T08:01:43;100325.45;;;6.39;77.92
75172;BME280;63750;52.418;20.742;2022-12-26T08:04:12;100312.47;;;6.41;77.93
75172;BME280;63750;52.418;20.742;2022-12-26T08:06:41;100301.95;;;6.45;78.00
75172;BME280;63750;52.418;20.742;2022-12-26T08:09:13;100284.74;;;6.47;77.79
75172;BME280;63750;52.418;20.742;2022-12-26T08:11:42;100304.67;;;6.51;77.85
75172;BME280;63750;52.418;20.742;2022-12-26T08:14:13;100302.67;;;6.52;77.99
75172;BME280;63750;52.418;20.742;2022-12-26T08:16:44;100312.13;;;6.55;77.91
75172;BME280;63750;52.418;20.742;2022-12-26T08:19:14;100302.55;;;6.63;77.79
75172;BME280;63750;52.418;20.742;2022-12-26T08:21:44;100281.68;;;6.67;77.82
75172;BME280;63750;52.418;20.742;2022-12-26T08:24:13;100275.00;;;6.71;77.87
75172;BME280;63750;52.418;20.742;2022-12-26T08:26:43;100285.64;;;6.75;77.62
75172;BME280;63750;52.418;20.742;2022-12-26T08:29:12;100297.31;;;6.79;77.49
75172;BME280;63750;52.418;20.742;2022-12-26T08:31:42;100299.12;;;6.83;77.50
75172;BME280;63750;52.418;20.742;2022-12-26T08:34:11;100297.92;;;6.90;77.49
75172;BME280;63750;52.418;20.742;2022-12-26T08:36:40;100285.58;;;6.95;77.48
75172;BME280;63750;52.418;20.742;2022-12-26T08:39:09;100288.53;;;6.97;77.29
75172;BME280;63750;52.418;20.742;2022-12-26T08:41:38;100281.94;;;6.98;77.33
75172;BME280;63750;52.418;20.742;2022-12-26T08:44:09;100279.13;;;6.98;77.28
75172;BME280;63750;52.418;20.742;2022-12-26T08:46:39;100265.42;;;6.98;77.18
75172;BME280;63750;52.418;20.742;2022-12-26T08:49:11;100259.30;;;7.02;77.12
75172;BME280;63750;52.418;20.742;2022-12-26T08:51:40;100258.83;;;7.03;77.20
75172;BME280;63750;52.418;20.742;2022-12-26T08:54:09;100264.71;;;7.04;77.13
75172;BME280;63750;52.418;20.742;2022-12-26T08:56:38;100264.20;;;7.09;77.30
75172;BME280;63750;52.418;20.742;2022-12-26T08:59:06;100260.05;;;7.10;77.27
75172;BME280;63750;52.418;20.742;2022-12-26T09:01:35;100250.37;;;7.10;77.25
75172;BME280;63750;52.418;20.742;2022-12-26T09:04:05;100249.86;;;7.07;77.40
75172;BME280;63750;52.418;20.742;2022-12-26T09:06:35;100239.81;;;7.07;77.51
75172;BME280;63750;52.418;20.742;2022-12-26T09:09:07;100241.66;;;7.15;77.45
75172;BME280;63750;52.418;20.742;2022-12-26T09:11:36;100242.67;;;7.16;77.56
75172;BME280;63750;52.418;20.742;2022-12-26T09:14:07;100238.64;;;7.18;77.63
75172;BME280;63750;52.418;20.742;2022-12-26T09:16:41;100244.33;;;7.24;77.76
75172;BME280;63750;52.418;20.742;2022-12-26T09:19:15;100239.92;;;7.29;77.91
75172;BME280;63750;52.418;20.742;2022-12-26T09:21:46;100234.43;;;7.36;77.85
75172;BME280;63750;52.418;20.742;2022-12-26T09:24:18;100234.91;;;7.46;77.61
75172;BME280;63750;52.418;20.742;2022-12-26T09:26:48;100231.16;;;7.51;77.65
75172;BME280;63750;52.418;20.742;2022-12-26T09:29:19;100229.55;;;7.53;77.36
75172;BME280;63750;52.418;20.742;2022-12-26T09:31:50;100224.01;;;7.54;77.38
75172;BME280;63750;52.418;20.742;2022-12-26T09:34:25;100213.81;;;7.60;77.28
75172;BME280;63750;52.418;20.742;2022-12-26T09:36:55;100199.75;;;7.64;77.29
75172;BME280;63750;52.418;20.742;2022-12-26T09:39:24;100197.05;;;7.75;77.42
75172;BME280;63750;52.418;20.742;2022-12-26T09:42:02;100202.69;;;7.80;77.32
75172;BME280;63750;52.418;20.742;2022-12-26T09:44:47;100199.26;;;7.86;77.08
75172;BME280;63750;52.418;20.742;2022-12-26T09:50:15;100197.89;;;8.00;76.95
75172;BME280;63750;52.418;20.742;2022-12-26T09:52:50;100206.27;;;8.05;77.03
75172;BME280;63750;52.418;20.742;2022-12-26T09:55:29;100201.23;;;8.09;76.73
75172;BME280;63750;52.418;20.742;2022-12-26T09:58:06;100199.28;;;8.11;76.83
75172;BME280;63750;52.418;20.742;2022-12-26T10:00:42;100200.02;;;8.19;76.95
75172;BME280;63750;52.418;20.742;2022-12-26T10:03:13;100205.86;;;8.19;77.11
75172;BME280;63750;52.418;20.742;2022-12-26T10:05:51;100201.49;;;8.23;76.78
75172;BME280;63750;52.418;20.742;2022-12-26T10:08:27;100188.08;;;8.29;76.91
75172;BME280;63750;52.418;20.742;2022-12-26T10:11:10;100188.23;;;8.36;76.85
75172;BME280;63750;52.418;20.742;2022-12-26T10:13:46;100183.94;;;8.39;77.03
75172;BME280;63750;52.418;20.742;2022-12-26T10:16:20;100184.06;;;8.40;77.25
75172;BME280;63750;52.418;20.742;2022-12-26T10:18:59;100184.20;;;8.46;76.94
75172;BME280;63750;52.418;20.742;2022-12-26T10:21:45;100178.05;;;8.54;77.01
75172;BME280;63750;52.418;20.742;2022-12-26T10:24:21;100171.27;;;8.55;77.24
75172;BME280;63750;52.418;20.742;2022-12-26T10:26:56;100165.88;;;8.63;76.79
75172;BME280;63750;52.418;20.742;2022-12-26T10:29:30;100161.40;;;8.69;76.93
75172;BME280;63750;52.418;20.742;2022-12-26T10:32:04;100159.45;;;8.74;77.10
75172;BME280;63750;52.418;20.742;2022-12-26T10:34:38;100157.02;;;8.81;77.11
75172;BME280;63750;52.418;20.742;2022-12-26T10:37:14;100152.78;;;8.88;77.03
75172;BME280;63750;52.418;20.742;2022-12-26T10:39:49;100156.81;;;8.92;77.04
75172;BME280;63750;52.418;20.742;2022-12-26T10:42:25;100152.48;;;8.97;77.17
75172;BME280;63750;52.418;20.742;2022-12-26T10:44:55;100138.94;;;9.05;77.67
75172;BME280;63750;52.418;20.742;2022-12-26T10:47:26;100133.95;;;9.13;77.53
75172;BME280;63750;52.418;20.742;2022-12-26T10:49:56;100131.50;;;9.21;77.07
75172;BME280;63750;52.418;20.742;2022-12-26T10:52:29;100133.05;;;9.32;77.25
75172;BME280;63750;52.418;20.742;2022-12-26T10:54:59;100129.50;;;9.37;77.07
75172;BME280;63750;52.418;20.742;2022-12-26T10:57:30;100127.58;;;9.41;77.25
75172;BME280;63750;52.418;20.742;2022-12-26T11:00:00;100120.50;;;9.47;77.46
75172;BME280;63750;52.418;20.742;2022-12-26T11:02:31;100113.90;;;9.51;76.89
75172;BME280;63750;52.418;20.742;2022-12-26T11:05:06;100119.11;;;9.54;76.73
75172;BME280;63750;52.418;20.742;2022-12-26T11:07:39;100118.60;;;9.59;76.95
75172;BME280;63750;52.418;20.742;2022-12-26T11:10:16;100116.20;;;9.64;77.23
75172;BME280;63750;52.418;20.742;2022-12-26T11:12:49;100117.19;;;9.72;77.26
75172;BME280;63750;52.418;20.742;2022-12-26T11:15:23;100119.18;;;9.78;77.54
75172;BME280;63750;52.418;20.742;2022-12-26T11:18:08;100120.58;;;9.83;77.33
75172;BME280;63750;52.418;20.742;2022-12-26T11:20:41;100123.13;;;9.92;77.41
75172;BME280;63750;52.418;20.742;2022-12-26T11:23:28;100122.04;;;10.04;77.41
75172;BME280;63750;52.418;20.742;2022-12-26T11:25:58;100121.85;;;10.16;77.31
75172;BME280;63750;52.418;20.742;2022-12-26T11:28:33;100121.75;;;10.25;77.04
75172;BME280;63750;52.418;20.742;2022-12-26T11:31:06;100125.06;;;10.32;76.90
75172;BME280;63750;52.418;20.742;2022-12-26T11:33:40;100125.38;;;10.36;76.67
75172;BME280;63750;52.418;20.742;2022-12-26T11:36:21;100123.86;;;10.33;76.79
75172;BME280;63750;52.418;20.742;2022-12-26T11:38:54;100116.09;;;10.33;76.81
75172;BME280;63750;52.418;20.742;2022-12-26T11:41:37;100113.33;;;10.32;76.92
75172;BME280;63750;52.418;20.742;2022-12-26T11:44:18;100117.04;;;10.36;76.56
75172;BME280;63750;52.418;20.742;2022-12-26T11:46:50;100117.04;;;10.45;76.58
75172;BME280;63750;52.418;20.742;2022-12-26T11:49:28;100112.00;;;10.56;76.64
75172;BME280;63750;52.418;20.742;2022-12-26T11:52:01;100109.85;;;10.69;76.73
75172;BME280;63750;52.418;20.742;2022-12-26T11:54:49;100107.01;;;10.86;76.63
75172;BME280;63750;52.418;20.742;2022-12-26T11:57:26;100103.09;;;11.09;76.66
75172;BME280;63750;52.418;20.742;2022-12-26T12:00:11;100097.08;;;11.28;76.54
75172;BME280;63750;52.418;20.742;2022-12-26T12:02:43;100098.19;;;11.37;76.34
75172;BME280;63750;52.418;20.742;2022-12-26T12:05:19;100096.43;;;11.44;76.15
75172;BME280;63750;52.418;20.742;2022-12-26T12:11:01;100101.20;;;11.46;75.73
75172;BME280;63750;52.418;20.742;2022-12-26T12:14:00;100099.23;;;11.46;75.52
75172;BME280;63750;52.418;20.742;2022-12-26T12:16:41;100092.66;;;11.46;75.37
75172;BME280;63750;52.418;20.742;2022-12-26T12:22:38;100086.61;;;11.50;75.13
75172;BME280;63750;52.418;20.742;2022-12-26T12:28:30;100088.86;;;11.58;75.13
75172;BME280;63750;52.418;20.742;2022-12-26T12:31:10;100096.90;;;11.60;74.94
75172;BME280;63750;52.418;20.742;2022-12-26T12:33:59;100108.49;;;11.62;74.87
75172;BME280;63750;52.418;20.742;2022-12-26T12:36:36;100117.61;;;11.58;74.55
75172;BME280;63750;52.418;20.742;2022-12-26T12:39:18;100110.36;;;11.57;74.62
75172;BME280;63750;52.418;20.742;2022-12-26T12:42:10;100112.09;;;11.54;74.57
75172;BME280;63750;52.418;20.742;2022-12-26T12:44:54;100108.83;;;11.51;74.53
75172;BME280;63750;52.418;20.742;2022-12-26T12:47:35;100104.90;;;11.53;74.70
75172;BME280;63750;52.418;20.742;2022-12-26T12:50:15;100116.17;;;11.56;74.73
75172;BME280;63750;52.418;20.742;2022-12-26T12:52:54;100123.90;;;11.57;74.54
75172;BME280;63750;52.418;20.742;2022-12-26T12:55:50;100124.06;;;11.57;74.27
75172;BME280;63750;52.418;20.742;2022-12-26T12:58:31;100123.34;;;11.59;74.24
75172;BME280;63750;52.418;20.742;2022-12-26T13:01:08;100118.29;;;11.60;74.29
75172;BME280;63750;52.418;20.742;2022-12-26T13:03:44;100123.47;;;11.61;74.14
75172;BME280;63750;52.418;20.742;2022-12-26T13:06:17;100118.21;;;11.59;74.27
75172;BME280;63750;52.418;20.742;2022-12-26T13:08:52;100113.35;;;11.58;73.95
75172;BME280;63750;52.418;20.742;2022-12-26T13:11:27;100118.30;;;11.56;74.06
75172;BME280;63750;52.418;20.742;2022-12-26T13:13:59;100113.74;;;11.57;74.30
75172;BME280;63750;52.418;20.742;2022-12-26T13:16:32;100113.38;;;11.61;74.02
75172;BME280;63750;52.418;20.742;2022-12-26T13:19:05;100109.20;;;11.62;73.78
75172;BME280;63750;52.418;20.742;2022-12-26T13:21:41;100121.54;;;11.59;73.78
75172;BME280;63750;52.418;20.742;2022-12-26T13:24:17;100125.06;;;11.58;73.58
75172;BME280;63750;52.418;20.742;2022-12-26T13:26:59;100123.46;;;11.58;73.48
75172;BME280;63750;52.418;20.742;2022-12-26T13:29:38;100125.05;;;11.58;73.49
75172;BME280;63750;52.418;20.742;2022-12-26T13:32:18;100122.96;;;11.59;73.45
75172;BME280;63750;52.418;20.742;2022-12-26T13:34:51;100125.67;;;11.62;73.50
75172;BME280;63750;52.418;20.742;2022-12-26T13:37:56;100124.56;;;11.64;73.51
75172;BME280;63750;52.418;20.742;2022-12-26T13:40:29;100124.27;;;11.68;73.54